createdAt,value
2023-02-19T00:00:09.268Z,96076.84
2023-02-19T00:02:35.856Z,96062.06
2023-02-19T00:05:02.606Z,96068.59
2023-02-19T00:07:29.098Z,96066.75
2023-02-19T00:09:55.583Z,96058.06
2023-02-19T00:12:22.106Z,96061.03
2023-02-19T00:14:48.625Z,96059.50
2023-02-19T00:17:15.161Z,96050.09
2023-02-19T00:19:41.687Z,96046.84
2023-02-19T00:22:08.244Z,96050.97
2023-02-19T00:24:34.903Z,96051.91
2023-02-19T00:27:01.450Z,96046.22
2023-02-19T00:29:27.976Z,96040.38
2023-02-19T00:31:54.686Z,96047.38
2023-02-19T00:34:21.372Z,96050.63
2023-02-19T00:36:47.914Z,96051.75
2023-02-19T00:39:16.222Z,96054.09
2023-02-19T00:41:43.496Z,96045.41
2023-02-19T00:44:11.404Z,96058.22
2023-02-19T00:46:40.470Z,96046.38
2023-02-19T00:49:08.895Z,96041.91
2023-02-19T00:51:37.757Z,96040.22
2023-02-19T00:54:05.828Z,96036.66
2023-02-19T00:56:32.846Z,96033.28
2023-02-19T00:58:59.607Z,96035.59
2023-02-19T01:01:26.151Z,96034.00
2023-02-19T01:03:52.814Z,96035.75
2023-02-19T01:06:20.653Z,96036.78
2023-02-19T01:08:47.690Z,96032.44
2023-02-19T01:11:15.182Z,96038.06
2023-02-19T01:13:42.932Z,96042.69
2023-02-19T01:16:16.450Z,96042.09
2023-02-19T01:18:43.802Z,96040.00
2023-02-19T01:21:17.904Z,96042.44
2023-02-19T01:23:44.748Z,96042.75
2023-02-19T01:26:20.684Z,96033.06
2023-02-19T01:28:48.529Z,96035.75
2023-02-19T01:31:19.124Z,96042.53
2023-02-19T01:33:48.011Z,96014.59
2023-02-19T01:36:15.058Z,96029.31
2023-02-19T01:38:41.971Z,96030.84
2023-02-19T01:41:11.680Z,96030.09
2023-02-19T01:44:13.871Z,96031.28
2023-02-19T01:46:44.956Z,96029.88
2023-02-19T01:49:17.322Z,96029.59
2023-02-19T01:51:48.919Z,96030.28
2023-02-19T01:54:20.466Z,96015.56
2023-02-19T01:56:48.563Z,96038.38
2023-02-19T01:59:16.898Z,96037.44
2023-02-19T02:01:43.510Z,96029.25
2023-02-19T02:04:13.278Z,96025.34
2023-02-19T02:06:49.275Z,96015.38
2023-02-19T02:09:36.865Z,96019.00
2023-02-19T02:12:03.764Z,96010.38
2023-02-19T02:14:34.179Z,96006.81
2023-02-19T02:17:09.930Z,96000.38
2023-02-19T02:19:45.451Z,96000.50
2023-02-19T02:22:29.386Z,96006.06
2023-02-19T02:25:10.716Z,95997.31
2023-02-19T02:27:53.617Z,95981.56
2023-02-19T02:30:30.294Z,95982.94
2023-02-19T02:33:39.777Z,95973.94
2023-02-19T02:36:12.951Z,95981.41
2023-02-19T02:38:44.127Z,95982.63
2023-02-19T02:41:12.963Z,95974.47
2023-02-19T02:43:39.855Z,95970.34
2023-02-19T02:46:06.795Z,95957.22
2023-02-19T02:48:49.495Z,95946.47
2023-02-19T02:51:38.764Z,95930.66
2023-02-19T02:54:29.665Z,95965.59
2023-02-19T02:56:58.523Z,95969.75
2023-02-19T02:59:28.994Z,95972.69
2023-02-19T03:02:14.710Z,95960.84
2023-02-19T03:05:10.789Z,95951.88
2023-02-19T03:07:53.403Z,95944.19
2023-02-19T03:10:35.835Z,95961.53
2023-02-19T03:13:24.870Z,95980.06
2023-02-19T03:16:15.664Z,95975.16
2023-02-19T03:19:03.206Z,95966.00
2023-02-19T03:21:29.755Z,95981.22
2023-02-19T03:24:16.452Z,95966.50
2023-02-19T03:26:45.734Z,95973.13
2023-02-19T03:29:23.213Z,95958.41
2023-02-19T03:31:57.688Z,95964.91
2023-02-19T03:34:30.630Z,95964.16
2023-02-19T03:37:06.654Z,95945.56
2023-02-19T03:39:33.311Z,95966.19
2023-02-19T03:42:13.017Z,95948.50
2023-02-19T03:44:46.733Z,95937.19
2023-02-19T03:47:43.787Z,95933.34
2023-02-19T03:50:13.320Z,95950.34
2023-02-19T03:53:03.739Z,95944.00
2023-02-19T03:56:05.896Z,95937.09
2023-02-19T03:59:18.614Z,95933.94
2023-02-19T04:01:52.327Z,95961.78
2023-02-19T04:04:25.662Z,95971.22
2023-02-19T04:06:57.481Z,95992.03
2023-02-19T04:09:29.781Z,95989.03
2023-02-19T04:11:57.109Z,95969.56
2023-02-19T04:14:33.162Z,95971.34
2023-02-19T04:17:04.116Z,95976.66
2023-02-19T04:19:35.133Z,95956.97
2023-02-19T04:22:02.149Z,95948.56
2023-02-19T04:24:35.035Z,95946.13
2023-02-19T04:27:02.636Z,95936.53
2023-02-19T04:29:29.137Z,95934.88
2023-02-19T04:31:55.762Z,95938.59
2023-02-19T04:34:22.512Z,95949.13
2023-02-19T04:36:49.105Z,95958.00
2023-02-19T04:39:15.689Z,95949.72
2023-02-19T04:41:42.266Z,95954.25
2023-02-19T04:44:08.785Z,95958.53
2023-02-19T04:46:35.312Z,95966.03
2023-02-19T04:49:01.829Z,95963.16
2023-02-19T04:51:28.455Z,95965.44
2023-02-19T04:53:56.374Z,95962.31
2023-02-19T04:56:23.014Z,95963.53
2023-02-19T04:58:49.514Z,95953.03
2023-02-19T05:01:16.162Z,95950.16
2023-02-19T05:03:43.088Z,95960.19
2023-02-19T05:06:12.165Z,95964.75
2023-02-19T05:08:38.852Z,95947.78
2023-02-19T05:11:08.469Z,95948.09
2023-02-19T05:13:35.435Z,95952.19
2023-02-19T05:16:13.845Z,95969.84
2023-02-19T05:18:41.439Z,95956.31
2023-02-19T05:21:08.886Z,95964.25
2023-02-19T05:23:35.602Z,95961.63
2023-02-19T05:26:11.869Z,95974.00
2023-02-19T05:28:38.482Z,95986.50
2023-02-19T05:31:07.507Z,95994.53
2023-02-19T05:33:35.008Z,95985.44
2023-02-19T05:36:08.839Z,95980.84
2023-02-19T05:38:36.552Z,95992.81
2023-02-19T05:41:17.152Z,95985.13
2023-02-19T05:43:45.663Z,95974.63
2023-02-19T05:46:15.362Z,95975.38
2023-02-19T05:48:42.680Z,95973.31
2023-02-19T05:51:14.744Z,95978.97
2023-02-19T05:53:42.505Z,95997.56
2023-02-19T05:56:27.367Z,95984.91
2023-02-19T05:58:54.721Z,95986.72
2023-02-19T06:01:23.807Z,95967.78
2023-02-19T06:03:50.413Z,95975.38
2023-02-19T06:06:19.062Z,95983.19
2023-02-19T06:08:46.093Z,95963.56
2023-02-19T06:11:12.928Z,95973.50
2023-02-19T06:13:39.607Z,95972.81
2023-02-19T06:16:07.579Z,95981.88
2023-02-19T06:18:34.408Z,95997.66
2023-02-19T06:21:05.904Z,95999.44
2023-02-19T06:23:33.075Z,96009.81
2023-02-19T06:26:20.291Z,96024.28
2023-02-19T06:28:48.569Z,96027.31
2023-02-19T06:31:15.729Z,96007.81
2023-02-19T06:33:42.336Z,96023.56
2023-02-19T06:36:13.218Z,96015.91
2023-02-19T06:38:39.779Z,96018.03
2023-02-19T06:41:07.471Z,96023.28
2023-02-19T06:43:34.728Z,96026.91
2023-02-19T06:46:02.945Z,96033.72
2023-02-19T06:48:30.728Z,96034.22
2023-02-19T06:50:57.783Z,96032.94
2023-02-19T06:53:24.664Z,96036.06
2023-02-19T06:55:58.848Z,96056.50
2023-02-19T06:58:26.195Z,96059.34
2023-02-19T07:00:53.957Z,96053.16
2023-02-19T07:03:20.925Z,96067.56
2023-02-19T07:05:47.767Z,96057.91
2023-02-19T07:08:14.506Z,96061.41
2023-02-19T07:10:41.067Z,96080.69
2023-02-19T07:13:07.625Z,96080.13
2023-02-19T07:15:34.302Z,96084.94
2023-02-19T07:18:00.942Z,96081.88
2023-02-19T07:20:27.512Z,96085.44
2023-02-19T07:22:54.176Z,96077.56
2023-02-19T07:25:20.840Z,96082.72
2023-02-19T07:27:47.343Z,96081.44
2023-02-19T07:30:13.930Z,96087.72
2023-02-19T07:32:45.423Z,96090.34
2023-02-19T07:35:12.021Z,96071.97
2023-02-19T07:37:38.743Z,96099.47
2023-02-19T07:40:05.999Z,96101.94
2023-02-19T07:42:32.570Z,96092.03
2023-02-19T07:45:00.661Z,96113.28
2023-02-19T07:47:27.299Z,96119.22
2023-02-19T07:49:53.808Z,96121.56
2023-02-19T07:52:20.417Z,96121.22
2023-02-19T07:54:46.987Z,96135.38
2023-02-19T07:57:14.544Z,96122.66
2023-02-19T07:59:41.126Z,96138.16
2023-02-19T08:02:44.589Z,96125.31
2023-02-19T08:05:11.110Z,96135.72
2023-02-19T08:07:38.063Z,96157.84
2023-02-19T08:10:23.785Z,96142.75
2023-02-19T08:13:16.200Z,96144.88
2023-02-19T08:15:42.949Z,96154.94
2023-02-19T08:18:10.848Z,96150.28
2023-02-19T08:20:37.535Z,96148.84
2023-02-19T08:23:04.387Z,96158.91
2023-02-19T08:25:31.053Z,96150.44
2023-02-19T08:27:57.616Z,96157.22
2023-02-19T08:30:24.285Z,96155.28
2023-02-19T08:32:50.906Z,96160.25
2023-02-19T08:35:17.616Z,96160.78
2023-02-19T08:37:44.364Z,96151.75
2023-02-19T08:40:11.626Z,96158.47
2023-02-19T08:42:38.197Z,96171.56
2023-02-19T08:45:05.723Z,96162.34
2023-02-19T08:47:34.675Z,96171.81
2023-02-19T08:50:01.247Z,96167.16
2023-02-19T08:52:27.945Z,96174.38
2023-02-19T08:54:54.469Z,96173.09
2023-02-19T08:57:21.141Z,96174.44
2023-02-19T08:59:47.733Z,96181.84
2023-02-19T09:02:14.270Z,96173.72
2023-02-19T09:04:40.901Z,96174.44
2023-02-19T09:07:09.501Z,96179.97
2023-02-19T09:09:38.947Z,96171.72
2023-02-19T09:12:06.983Z,96184.28
2023-02-19T09:14:34.546Z,96163.44
2023-02-19T09:17:02.106Z,96166.44
2023-02-19T09:19:29.205Z,96167.25
2023-02-19T09:21:56.355Z,96161.19
2023-02-19T09:24:23.422Z,96164.19
2023-02-19T09:26:51.442Z,96161.56
2023-02-19T09:29:18.230Z,96157.00
2023-02-19T09:31:45.388Z,96153.59
2023-02-19T09:34:12.112Z,96154.31
2023-02-19T09:36:39.806Z,96157.31
2023-02-19T09:39:08.527Z,96161.16
2023-02-19T09:41:46.885Z,96168.00
2023-02-19T09:44:33.054Z,96152.84
2023-02-19T09:47:02.073Z,96161.06
2023-02-19T09:49:36.369Z,96168.63
2023-02-19T09:52:11.592Z,96164.56
2023-02-19T09:54:39.590Z,96147.94
2023-02-19T09:57:13.970Z,96165.66
2023-02-19T09:59:45.308Z,96155.78
2023-02-19T10:02:16.471Z,96163.09
2023-02-19T10:04:45.813Z,96157.38
2023-02-19T10:07:18.078Z,96157.41
2023-02-19T10:10:17.948Z,96161.47
2023-02-19T10:12:50.707Z,96151.25
2023-02-19T10:15:22.561Z,96161.00
2023-02-19T10:17:49.077Z,96155.41
2023-02-19T10:20:18.955Z,96160.13
2023-02-19T10:22:45.932Z,96178.59
2023-02-19T10:25:16.775Z,96167.53
2023-02-19T10:27:44.107Z,96165.38
2023-02-19T10:30:23.963Z,96154.97
2023-02-19T10:33:02.705Z,96159.50
2023-02-19T10:35:31.069Z,96157.94
2023-02-19T10:37:58.105Z,96167.50
2023-02-19T10:40:29.096Z,96157.22
2023-02-19T10:43:04.160Z,96154.06
2023-02-19T10:45:50.435Z,96151.19
2023-02-19T10:48:34.996Z,96144.34
2023-02-19T10:51:06.113Z,96148.28
2023-02-19T10:53:45.424Z,96136.75
2023-02-19T10:56:25.066Z,96138.84
2023-02-19T10:58:52.089Z,96138.88
2023-02-19T11:01:29.265Z,96145.09
2023-02-19T11:04:16.403Z,96140.44
2023-02-19T11:06:43.309Z,96134.91
2023-02-19T11:09:22.605Z,96132.25
2023-02-19T11:11:52.114Z,96133.00
2023-02-19T11:14:22.687Z,96134.97
2023-02-19T11:16:56.457Z,96125.41
2023-02-19T11:19:34.368Z,96127.69
2023-02-19T11:22:02.266Z,96115.59
2023-02-19T11:24:38.198Z,96108.13
2023-02-19T11:27:07.715Z,96115.09
2023-02-19T11:29:37.301Z,96112.59
2023-02-19T11:32:32.499Z,96123.94
2023-02-19T11:35:22.673Z,96095.97
2023-02-19T11:37:59.957Z,96099.75
2023-02-19T11:40:39.607Z,96096.00
2023-02-19T11:43:21.408Z,96099.78
2023-02-19T11:46:14.586Z,96102.44
2023-02-19T11:49:08.954Z,96097.09
2023-02-19T11:51:51.492Z,96099.72
2023-02-19T11:54:40.796Z,96082.34
2023-02-19T11:57:07.316Z,96090.31
2023-02-19T12:00:15.853Z,96092.53
2023-02-19T12:02:49.626Z,96087.66
2023-02-19T12:06:10.166Z,96077.81
2023-02-19T12:08:55.499Z,96077.81
2023-02-19T12:11:34.491Z,96079.19
2023-02-19T12:14:17.125Z,96072.50
2023-02-19T12:16:43.701Z,96076.25
2023-02-19T12:19:13.026Z,96077.78
2023-02-19T12:21:57.691Z,96072.88
2023-02-19T12:24:32.218Z,96071.00
2023-02-19T12:27:40.854Z,96073.25
2023-02-19T12:30:39.285Z,96065.69
2023-02-19T12:33:24.376Z,96067.81
2023-02-19T12:36:00.130Z,96063.81
2023-02-19T12:38:40.204Z,96062.47
2023-02-19T12:41:34.798Z,96047.97
2023-02-19T12:44:13.764Z,96047.19
2023-02-19T12:46:46.451Z,96054.09
2023-02-19T12:49:36.059Z,96040.22
2023-02-19T12:52:22.633Z,96046.41
2023-02-19T12:54:55.834Z,96036.44
2023-02-19T12:57:30.186Z,96035.06
2023-02-19T13:00:15.269Z,96043.47
2023-02-19T13:02:48.641Z,96048.00
2023-02-19T13:05:29.646Z,96042.78
2023-02-19T13:08:02.235Z,96061.16
2023-02-19T13:10:51.469Z,96055.19
2023-02-19T13:13:28.944Z,96049.81
2023-02-19T13:16:02.586Z,96057.06
2023-02-19T13:18:36.853Z,96060.25
2023-02-19T13:21:06.385Z,96070.44
2023-02-19T13:23:58.178Z,96055.28
2023-02-19T13:26:42.817Z,96077.94
2023-02-19T13:29:31.168Z,96062.06
2023-02-19T13:31:57.918Z,96066.53
2023-02-19T13:34:48.827Z,96077.72
2023-02-19T13:37:16.810Z,96070.88
2023-02-19T13:39:52.255Z,96056.66
2023-02-19T13:42:27.980Z,96059.69
2023-02-19T13:44:57.988Z,96064.19
2023-02-19T13:47:57.393Z,96077.38
2023-02-19T13:50:25.618Z,96068.50
2023-02-19T13:52:53.943Z,96071.09
2023-02-19T13:55:54.595Z,96063.03
2023-02-19T13:58:33.467Z,96059.75
2023-02-19T14:01:08.734Z,96057.94
2023-02-19T14:04:07.751Z,96069.88
2023-02-19T14:07:05.217Z,96068.72
2023-02-19T14:09:35.446Z,96073.63
2023-02-19T14:12:19.274Z,96074.03
2023-02-19T14:14:53.654Z,96079.19
2023-02-19T14:17:37.776Z,96089.16
2023-02-19T14:20:11.594Z,96093.56
2023-02-19T14:22:52.077Z,96096.59
2023-02-19T14:25:38.223Z,96088.22
2023-02-19T14:28:11.385Z,96088.34
2023-02-19T14:31:05.722Z,96080.78
2023-02-19T14:33:40.204Z,96082.97
2023-02-19T14:36:20.538Z,96090.50
2023-02-19T14:39:05.019Z,96090.06
2023-02-19T14:41:33.890Z,96088.16
2023-02-19T14:44:02.350Z,96083.34
2023-02-19T14:46:40.151Z,96079.88
2023-02-19T14:49:39.189Z,96085.16
2023-02-19T14:52:11.827Z,96078.13
2023-02-19T14:55:00.363Z,96081.16
2023-02-19T14:57:45.975Z,96066.34
2023-02-19T15:00:27.321Z,96065.03
2023-02-19T15:02:56.885Z,96056.38
2023-02-19T15:05:32.529Z,96064.72
2023-02-19T15:08:02.492Z,96054.78
2023-02-19T15:10:32.220Z,96059.84
2023-02-19T15:13:05.924Z,96067.00
2023-02-19T15:15:36.414Z,96071.84
2023-02-19T15:18:05.291Z,96073.06
2023-02-19T15:20:36.286Z,96072.69
2023-02-19T15:23:06.524Z,96079.81
2023-02-19T15:25:35.851Z,96079.88
2023-02-19T15:28:24.990Z,96088.34
2023-02-19T15:31:06.384Z,96080.22
2023-02-19T15:33:33.713Z,96089.00
2023-02-19T15:36:04.916Z,96095.66
2023-02-19T15:38:33.161Z,96089.66
2023-02-19T15:41:00.255Z,96102.63
2023-02-19T15:43:44.417Z,96103.59
2023-02-19T15:46:20.253Z,96114.59
2023-02-19T15:48:52.573Z,96113.94
2023-02-19T15:51:26.003Z,96108.00
2023-02-19T15:53:59.421Z,96117.97
2023-02-19T15:56:30.757Z,96118.69
2023-02-19T15:59:03.351Z,96122.38
2023-02-19T16:01:33.001Z,96115.72
2023-02-19T16:04:00.506Z,96120.63
2023-02-19T16:06:28.198Z,96132.63
2023-02-19T16:09:01.839Z,96133.66
2023-02-19T16:11:37.376Z,96141.44
2023-02-19T16:14:30.631Z,96146.56
2023-02-19T16:17:20.728Z,96160.13
2023-02-19T16:19:57.391Z,96156.72
2023-02-19T16:22:27.323Z,96159.44
2023-02-19T16:24:57.878Z,96159.41
2023-02-19T16:27:37.784Z,96163.78
2023-02-19T16:30:09.507Z,96166.25
2023-02-19T16:32:36.170Z,96163.13
2023-02-19T16:35:02.798Z,96171.25
2023-02-19T16:37:41.178Z,96174.75
2023-02-19T16:40:07.723Z,96178.00
2023-02-19T16:42:49.168Z,96183.31
2023-02-19T16:45:16.678Z,96194.44
2023-02-19T16:47:51.212Z,96191.72
2023-02-19T16:50:21.749Z,96210.63
2023-02-19T16:52:59.289Z,96212.56
2023-02-19T16:55:26.807Z,96217.47
2023-02-19T16:57:53.463Z,96211.59
2023-02-19T17:00:23.220Z,96219.72
2023-02-19T17:02:53.545Z,96220.41
2023-02-19T17:05:22.073Z,96217.03
2023-02-19T17:07:48.984Z,96223.41
2023-02-19T17:10:33.684Z,96224.56
2023-02-19T17:13:00.367Z,96232.47
2023-02-19T17:15:26.857Z,96248.47
2023-02-19T17:17:53.348Z,96247.88
2023-02-19T17:20:29.432Z,96257.50
2023-02-19T17:22:56.628Z,96258.09
2023-02-19T17:25:23.428Z,96263.34
2023-02-19T17:27:50.017Z,96262.22
2023-02-19T17:30:27.604Z,96261.72
2023-02-19T17:32:54.228Z,96263.59
2023-02-19T17:35:21.052Z,96276.09
2023-02-19T17:37:47.849Z,96276.72
2023-02-19T17:40:31.897Z,96282.41
2023-02-19T17:42:59.705Z,96280.81
2023-02-19T17:45:26.236Z,96288.25
2023-02-19T17:47:53.178Z,96281.84
2023-02-19T17:50:23.579Z,96303.41
2023-02-19T17:52:50.076Z,96295.53
2023-02-19T17:55:21.063Z,96296.41
2023-02-19T17:57:49.407Z,96291.22
2023-02-19T18:00:17.863Z,96293.34
2023-02-19T18:02:44.607Z,96294.53
2023-02-19T18:05:11.347Z,96286.41
2023-02-19T18:07:38.579Z,96279.13
2023-02-19T18:10:06.380Z,96287.78
2023-02-19T18:12:33.060Z,96275.06
2023-02-19T18:14:59.562Z,96275.75
2023-02-19T18:17:26.470Z,96273.31
2023-02-19T18:19:53.475Z,96277.03
2023-02-19T18:22:20.427Z,96270.88
2023-02-19T18:24:48.725Z,96272.75
2023-02-19T18:27:16.120Z,96279.09
2023-02-19T18:29:42.702Z,96285.94
2023-02-19T18:32:09.439Z,96283.59
2023-02-19T18:34:36.169Z,96256.06
2023-02-19T18:37:02.698Z,96267.19
2023-02-19T18:39:29.360Z,96284.06
2023-02-19T18:41:57.780Z,96289.00
2023-02-19T18:44:25.388Z,96293.66
2023-02-19T18:46:52.536Z,96292.22
2023-02-19T18:49:19.517Z,96293.66
2023-02-19T18:51:47.004Z,96280.75
2023-02-19T18:54:13.602Z,96267.97
2023-02-19T18:56:44.636Z,96280.47
2023-02-19T18:59:11.256Z,96285.09
2023-02-19T19:01:37.845Z,96276.09
2023-02-19T19:04:04.668Z,96274.56
2023-02-19T19:06:31.268Z,96261.78
2023-02-19T19:09:00.974Z,96258.91
2023-02-19T19:11:27.742Z,96266.78
2023-02-19T19:13:54.400Z,96275.47
2023-02-19T19:16:28.576Z,96285.03
2023-02-19T19:18:56.010Z,96275.63
2023-02-19T19:21:23.398Z,96276.09
2023-02-19T19:23:50.466Z,96272.22
2023-02-19T19:26:17.064Z,96279.50
2023-02-19T19:28:46.775Z,96279.59
2023-02-19T19:31:16.370Z,96265.28
2023-02-19T19:33:43.792Z,96275.28
2023-02-19T19:36:11.564Z,96274.59
2023-02-19T19:38:38.478Z,96286.81
2023-02-19T19:41:06.904Z,96285.88
2023-02-19T19:43:33.878Z,96276.78
2023-02-19T19:46:03.211Z,96279.00
2023-02-19T19:48:29.789Z,96280.69
2023-02-19T19:50:57.199Z,96273.91
2023-02-19T19:53:24.454Z,96283.66
2023-02-19T19:55:51.048Z,96302.56
2023-02-19T19:58:20.932Z,96308.25
2023-02-19T20:00:47.507Z,96295.69
2023-02-19T20:03:14.252Z,96315.34
2023-02-19T20:05:40.895Z,96320.53
2023-02-19T20:08:07.605Z,96322.56
2023-02-19T20:10:34.231Z,96319.69
2023-02-19T20:13:01.782Z,96304.34
2023-02-19T20:15:28.445Z,96318.69
2023-02-19T20:17:55.002Z,96313.63
2023-02-19T20:20:22.885Z,96309.28
2023-02-19T20:22:51.843Z,96314.00
2023-02-19T20:25:21.681Z,96312.91
2023-02-19T20:27:49.630Z,96321.16
2023-02-19T20:30:17.577Z,96323.28
2023-02-19T20:32:44.146Z,96322.75
2023-02-19T20:35:10.746Z,96329.28
2023-02-19T20:37:40.565Z,96325.81
2023-02-19T20:40:08.444Z,96323.34
2023-02-19T20:42:34.987Z,96331.91
2023-02-19T20:45:01.547Z,96331.84
2023-02-19T20:47:28.219Z,96334.31
2023-02-19T20:49:54.820Z,96330.38
2023-02-19T20:52:22.128Z,96331.69
2023-02-19T20:54:48.615Z,96342.34
2023-02-19T20:57:15.282Z,96334.03
2023-02-19T20:59:44.268Z,96346.66
2023-02-19T21:02:20.152Z,96342.06
2023-02-19T21:04:48.001Z,96351.47
2023-02-19T21:07:15.066Z,96348.25
2023-02-19T21:09:41.582Z,96343.69
2023-02-19T21:12:08.219Z,96354.78
2023-02-19T21:14:34.762Z,96365.41
2023-02-19T21:17:01.289Z,96368.47
2023-02-19T21:19:27.767Z,96369.91
2023-02-19T21:21:54.319Z,96373.91
2023-02-19T21:24:20.875Z,96376.66
2023-02-19T21:26:47.460Z,96380.81
2023-02-19T21:29:19.975Z,96378.47
2023-02-19T21:31:49.516Z,96381.88
2023-02-19T21:34:18.858Z,96383.97
2023-02-19T21:36:45.664Z,96381.28
2023-02-19T21:39:15.423Z,96379.50
2023-02-19T21:41:42.119Z,96377.03
2023-02-19T21:44:08.788Z,96378.78
2023-02-19T21:46:35.364Z,96386.00
2023-02-19T21:49:02.617Z,96381.03
2023-02-19T21:51:32.319Z,96389.50
2023-02-19T21:53:59.329Z,96395.34
2023-02-19T21:56:28.928Z,96385.78
2023-02-19T21:58:56.004Z,96387.47
2023-02-19T22:01:24.803Z,96389.59
2023-02-19T22:03:51.717Z,96371.78
2023-02-19T22:06:19.688Z,96372.41
2023-02-19T22:08:46.174Z,96379.94
2023-02-19T22:11:12.732Z,96370.78
2023-02-19T22:13:39.722Z,96376.22
2023-02-19T22:16:06.467Z,96376.00
2023-02-19T22:18:33.176Z,96372.88
2023-02-19T22:20:59.696Z,96380.59
2023-02-19T22:23:26.412Z,96373.16
2023-02-19T22:25:52.954Z,96377.38
2023-02-19T22:28:19.514Z,96360.94
2023-02-19T22:30:46.431Z,96366.16
2023-02-19T22:33:13.244Z,96361.63
2023-02-19T22:35:39.808Z,96369.72
2023-02-19T22:38:06.445Z,96377.66
2023-02-19T22:40:32.917Z,96350.63
2023-02-19T22:42:59.436Z,96369.44
2023-02-19T22:45:26.261Z,96370.13
2023-02-19T22:47:56.334Z,96373.03
2023-02-19T22:50:23.179Z,96380.59
2023-02-19T22:52:50.241Z,96381.81
2023-02-19T22:55:18.293Z,96379.41
2023-02-19T22:57:44.819Z,96369.50
2023-02-19T23:00:20.973Z,96383.25
2023-02-19T23:02:48.544Z,96382.97
2023-02-19T23:05:16.201Z,96382.22
2023-02-19T23:07:44.386Z,96380.19
2023-02-19T23:10:12.910Z,96378.00
2023-02-19T23:12:40.906Z,96383.13
2023-02-19T23:15:09.549Z,96371.19
2023-02-19T23:17:36.161Z,96381.31
2023-02-19T23:20:03.384Z,96367.44
2023-02-19T23:22:30.138Z,96381.88
2023-02-19T23:24:57.061Z,96375.69
2023-02-19T23:27:24.307Z,96379.78
2023-02-19T23:29:50.959Z,96383.66
2023-02-19T23:32:20.987Z,96380.53
2023-02-19T23:34:48.339Z,96377.19
2023-02-19T23:37:15.377Z,96375.91
2023-02-19T23:39:42.025Z,96371.09
2023-02-19T23:42:14.941Z,96371.00
2023-02-19T23:44:41.508Z,96359.06
2023-02-19T23:47:08.150Z,96367.38
2023-02-19T23:49:34.677Z,96362.41
2023-02-19T23:52:01.236Z,96376.75
2023-02-19T23:54:27.802Z,96367.69
2023-02-19T23:56:56.034Z,96376.09
2023-02-19T23:59:25.387Z,96380.69
